createdAt,value
2022-09-03T00:00:04.932Z,96.52
2022-09-03T00:02:52.590Z,96.16
2022-09-03T00:05:25.416Z,95.94
2022-09-03T00:08:23.291Z,95.63
2022-09-03T00:10:55.253Z,95.54
2022-09-03T00:13:45.812Z,95.79
2022-09-03T00:16:18.342Z,95.54
2022-09-03T00:18:50.608Z,95.62
2022-09-03T00:21:35.165Z,95.67
2022-09-03T00:24:06.483Z,95.59
2022-09-03T00:26:40.755Z,95.79
2022-09-03T00:29:16.134Z,96.13
2022-09-03T00:31:58.879Z,95.90
2022-09-03T00:34:32.512Z,95.91
2022-09-03T00:37:00.324Z,96.12
2022-09-03T00:39:28.937Z,95.80
2022-09-03T00:42:14.424Z,95.89
2022-09-03T00:44:55.040Z,95.79
2022-09-03T00:48:01.163Z,95.17
2022-09-03T00:50:31.533Z,95.35
2022-09-03T00:53:31.147Z,94.25
2022-09-03T00:56:19.571Z,95.31
2022-09-03T00:59:10.045Z,95.55
2022-09-03T01:02:18.018Z,94.94
2022-09-03T01:05:01.760Z,94.90
2022-09-03T01:08:08.204Z,94.31
2022-09-03T01:11:20.045Z,94.92
2022-09-03T01:14:03.139Z,95.06
2022-09-03T01:16:40.317Z,95.37
2022-09-03T01:19:45.952Z,95.40
2022-09-03T01:22:32.167Z,95.56
2022-09-03T01:25:17.685Z,95.77
2022-09-03T01:28:22.745Z,96.00
2022-09-03T01:31:01.580Z,96.22
2022-09-03T01:33:40.272Z,96.39
2022-09-03T01:36:21.380Z,96.24
2022-09-03T01:39:17.958Z,95.98
2022-09-03T01:42:20.849Z,95.88
2022-09-03T01:45:21.480Z,95.98
2022-09-03T01:48:04.264Z,96.66
2022-09-03T01:51:02.410Z,95.89
2022-09-03T01:54:17.988Z,96.67
2022-09-03T01:57:06.986Z,96.74
2022-09-03T01:59:48.875Z,96.31
2022-09-03T02:02:25.434Z,96.97
2022-09-03T02:05:19.335Z,96.19
2022-09-03T02:08:01.440Z,95.55
2022-09-03T02:10:45.529Z,95.29
2022-09-03T02:13:18.863Z,94.82
2022-09-03T02:15:48.787Z,94.87
2022-09-03T02:18:26.208Z,94.72
2022-09-03T02:20:54.884Z,94.86
2022-09-03T02:23:27.720Z,94.63
2022-09-03T02:25:59.656Z,94.70
2022-09-03T02:28:30.856Z,94.61
2022-09-03T02:30:59.039Z,94.57
2022-09-03T02:33:27.630Z,94.45
2022-09-03T02:35:55.294Z,94.74
2022-09-03T02:38:26.160Z,94.35
2022-09-03T02:40:54.964Z,94.65
2022-09-03T02:43:31.105Z,94.13
2022-09-03T02:46:04.353Z,93.88
2022-09-03T02:48:31.996Z,93.70
2022-09-03T02:50:59.809Z,93.89
2022-09-03T02:53:29.038Z,93.85
2022-09-03T02:56:00.581Z,94.02
2022-09-03T02:58:31.583Z,94.22
2022-09-03T03:00:59.657Z,94.17
2022-09-03T03:03:27.250Z,94.34
2022-09-03T03:05:57.913Z,97.76
2022-09-03T03:08:28.841Z,96.19
2022-09-03T03:10:58.785Z,95.00
2022-09-03T03:13:28.133Z,94.96
2022-09-03T03:16:00.085Z,97.46
2022-09-03T03:18:28.288Z,96.20
2022-09-03T03:20:56.049Z,95.62
2022-09-03T03:23:24.051Z,95.66
2022-09-03T03:25:51.608Z,95.36
2022-09-03T03:28:20.612Z,94.96
2022-09-03T03:30:48.956Z,94.75
2022-09-03T03:33:16.547Z,94.28
2022-09-03T03:35:44.376Z,93.75
2022-09-03T03:38:11.809Z,93.91
2022-09-03T03:40:39.836Z,94.13
2022-09-03T03:43:07.576Z,93.64
2022-09-03T03:45:35.063Z,93.96
2022-09-03T03:48:02.655Z,93.67
2022-09-03T03:50:30.439Z,93.39
2022-09-03T03:53:01.220Z,93.61
2022-09-03T03:55:29.356Z,93.91
2022-09-03T03:58:02.991Z,93.88
2022-09-03T04:00:30.592Z,93.60
2022-09-03T04:02:59.380Z,93.82
2022-09-03T04:05:26.795Z,93.81
2022-09-03T04:07:54.595Z,94.07
2022-09-03T04:10:22.354Z,94.58
2022-09-03T04:12:49.773Z,94.57
2022-09-03T04:15:17.340Z,94.23
2022-09-03T04:17:45.470Z,94.23
2022-09-03T04:20:12.943Z,94.40
2022-09-03T04:22:40.365Z,93.88
2022-09-03T04:25:08.625Z,94.12
2022-09-03T04:27:36.119Z,93.83
2022-09-03T04:30:03.895Z,93.67
2022-09-03T04:32:52.619Z,94.16
2022-09-03T04:35:21.049Z,94.08
2022-09-03T04:37:48.990Z,93.71
2022-09-03T04:40:16.473Z,94.02
2022-09-03T04:42:44.039Z,94.19
2022-09-03T04:45:12.335Z,93.88
2022-09-03T04:47:39.828Z,93.56
2022-09-03T04:50:07.805Z,94.01
2022-09-03T04:52:35.608Z,93.72
2022-09-03T04:55:03.133Z,93.70
2022-09-03T04:57:35.399Z,94.14
2022-09-03T05:00:04.896Z,95.06
2022-09-03T05:02:32.362Z,94.56
2022-09-03T05:04:59.862Z,97.03
2022-09-03T05:07:29.451Z,96.77
2022-09-03T05:09:56.928Z,96.43
2022-09-03T05:12:24.501Z,95.33
2022-09-03T05:14:52.209Z,94.47
2022-09-03T05:17:19.917Z,93.77
2022-09-03T05:19:47.364Z,94.29
2022-09-03T05:22:21.193Z,94.84
2022-09-03T05:24:48.985Z,94.15
2022-09-03T05:27:17.148Z,95.02
2022-09-03T05:29:45.348Z,94.55
2022-09-03T05:32:13.605Z,93.54
2022-09-03T05:34:41.360Z,92.75
2022-09-03T05:37:09.029Z,91.40
2022-09-03T05:39:36.576Z,90.32
2022-09-03T05:42:04.748Z,91.03
2022-09-03T05:44:33.520Z,92.64
2022-09-03T05:47:00.978Z,92.06
2022-09-03T05:49:30.312Z,90.71
2022-09-03T05:51:57.920Z,90.55
2022-09-03T05:54:25.404Z,89.98
2022-09-03T05:56:53.111Z,90.46
2022-09-03T05:59:20.694Z,92.42
2022-09-03T06:01:51.506Z,91.45
2022-09-03T06:04:20.676Z,91.11
2022-09-03T06:06:48.598Z,89.80
2022-09-03T06:09:18.790Z,88.48
2022-09-03T06:11:49.111Z,87.30
2022-09-03T06:14:17.948Z,85.08
2022-09-03T06:16:52.760Z,84.93
2022-09-03T06:19:20.597Z,85.36
2022-09-03T06:21:48.316Z,86.45
2022-09-03T06:24:26.274Z,86.73
2022-09-03T06:26:54.317Z,86.39
2022-09-03T06:29:21.990Z,84.35
2022-09-03T06:31:50.871Z,85.60
2022-09-03T06:34:19.289Z,84.10
2022-09-03T06:36:46.794Z,84.48
2022-09-03T06:39:14.257Z,85.47
2022-09-03T06:41:42.024Z,84.22
2022-09-03T06:44:13.155Z,83.28
2022-09-03T06:46:44.466Z,83.05
2022-09-03T06:49:12.239Z,82.97
2022-09-03T06:51:40.428Z,81.77
2022-09-03T06:54:10.437Z,79.95
2022-09-03T06:56:41.220Z,81.95
2022-09-03T06:59:14.368Z,80.09
2022-09-03T07:01:45.421Z,80.30
2022-09-03T07:04:16.629Z,82.90
2022-09-03T07:06:45.282Z,80.83
2022-09-03T07:09:14.937Z,80.07
2022-09-03T07:11:48.141Z,78.60
2022-09-03T07:14:18.720Z,79.26
2022-09-03T07:16:47.169Z,81.20
2022-09-03T07:19:15.329Z,82.22
2022-09-03T07:21:48.370Z,80.56
2022-09-03T07:24:18.248Z,80.31
2022-09-03T07:26:49.480Z,80.80
2022-09-03T07:29:20.381Z,79.04
2022-09-03T07:31:51.901Z,80.52
2022-09-03T07:34:22.031Z,80.08
2022-09-03T07:36:51.919Z,80.64
2022-09-03T07:39:19.861Z,81.25
2022-09-03T07:41:48.082Z,80.24
2022-09-03T07:44:23.045Z,80.96
2022-09-03T07:46:51.468Z,80.19
2022-09-03T07:49:21.706Z,78.17
2022-09-03T07:51:52.312Z,76.62
2022-09-03T07:54:21.801Z,75.49
2022-09-03T07:56:49.277Z,73.90
2022-09-03T07:59:17.042Z,75.74
2022-09-03T08:01:44.841Z,74.23
2022-09-03T08:04:12.593Z,70.91
2022-09-03T08:06:40.250Z,69.73
2022-09-03T08:09:13.821Z,68.99
2022-09-03T08:11:43.756Z,71.45
2022-09-03T08:14:13.108Z,71.58
2022-09-03T08:16:48.120Z,70.31
2022-09-03T08:19:18.344Z,68.49
2022-09-03T08:21:46.415Z,68.30
2022-09-03T08:24:16.701Z,67.94
2022-09-03T08:26:50.616Z,69.95
2022-09-03T08:29:20.244Z,70.39
2022-09-03T08:31:48.554Z,67.03
2022-09-03T08:34:17.659Z,70.62
2022-09-03T08:36:47.106Z,68.19
2022-09-03T08:39:15.455Z,67.87
2022-09-03T08:41:55.071Z,66.12
2022-09-03T08:44:28.224Z,67.51
2022-09-03T08:47:02.291Z,66.60
2022-09-03T08:50:13.523Z,65.23
2022-09-03T08:53:11.803Z,66.16
2022-09-03T08:55:44.909Z,67.46
2022-09-03T08:58:18.576Z,68.61
2022-09-03T09:01:13.192Z,66.80
2022-09-03T09:03:58.498Z,66.05
2022-09-03T09:06:47.948Z,66.57
2022-09-03T09:09:24.625Z,65.52
2022-09-03T09:12:08.772Z,64.40
2022-09-03T09:14:58.949Z,63.32
2022-09-03T09:17:41.524Z,62.07
2022-09-03T09:20:11.893Z,62.25
2022-09-03T09:22:43.843Z,63.07
2022-09-03T09:25:23.314Z,61.65
2022-09-03T09:27:58.467Z,62.89
2022-09-03T09:30:26.917Z,61.36
2022-09-03T09:32:56.213Z,61.67
2022-09-03T09:35:24.522Z,62.49
2022-09-03T09:37:55.058Z,62.01
2022-09-03T09:40:36.724Z,60.28
2022-09-03T09:43:11.032Z,62.25
2022-09-03T09:45:40.834Z,63.85
2022-09-03T09:48:15.667Z,62.65
2022-09-03T09:50:43.616Z,64.45
2022-09-03T09:53:15.080Z,61.36
2022-09-03T09:55:58.014Z,61.77
2022-09-03T09:58:30.806Z,59.56
2022-09-03T10:01:13.435Z,59.63
2022-09-03T10:04:09.480Z,59.37
2022-09-03T10:06:56.966Z,58.57
2022-09-03T10:09:31.467Z,58.64
2022-09-03T10:12:05.822Z,56.46
2022-09-03T10:14:47.659Z,57.10
2022-09-03T10:17:40.935Z,60.71
2022-09-03T10:20:30.244Z,60.65
2022-09-03T10:23:10.260Z,60.31
2022-09-03T10:25:50.266Z,61.37
2022-09-03T10:28:18.528Z,61.18
2022-09-03T10:31:19.265Z,61.75
2022-09-03T10:34:18.660Z,62.05
2022-09-03T10:36:53.620Z,59.89
2022-09-03T10:39:59.032Z,59.67
2022-09-03T10:42:54.052Z,59.50
2022-09-03T10:45:39.204Z,60.98
2022-09-03T10:48:18.795Z,61.28
2022-09-03T10:51:06.617Z,63.08
2022-09-03T10:54:04.617Z,60.25
2022-09-03T10:57:10.154Z,62.37
2022-09-03T11:00:12.963Z,62.89
2022-09-03T11:02:52.643Z,60.37
2022-09-03T11:05:54.693Z,56.05
2022-09-03T11:08:44.823Z,54.83
2022-09-03T11:11:21.864Z,54.60
2022-09-03T11:13:57.333Z,54.29
2022-09-03T11:16:32.411Z,54.22
2022-09-03T11:19:21.904Z,52.83
2022-09-03T11:21:51.339Z,53.59
2022-09-03T11:24:26.672Z,54.08
2022-09-03T11:27:32.867Z,52.41
2022-09-03T11:30:07.617Z,55.27
2022-09-03T11:32:52.913Z,54.96
2022-09-03T11:35:41.712Z,53.27
2022-09-03T11:38:15.591Z,53.33
2022-09-03T11:41:32.255Z,53.02
2022-09-03T11:44:11.986Z,53.29
2022-09-03T11:46:40.517Z,51.06
2022-09-03T11:49:13.771Z,49.79
2022-09-03T11:51:45.014Z,52.09
2022-09-03T11:54:12.684Z,51.41
2022-09-03T11:56:42.653Z,51.13
2022-09-03T11:59:13.785Z,50.78
2022-09-03T12:01:58.979Z,50.53
2022-09-03T12:04:49.148Z,48.53
2022-09-03T12:07:48.368Z,48.67
2022-09-03T12:10:26.384Z,48.16
2022-09-03T12:13:03.547Z,49.08
2022-09-03T12:15:52.199Z,50.98
2022-09-03T12:18:24.677Z,50.93
2022-09-03T12:20:52.764Z,50.20
2022-09-03T12:23:30.746Z,50.56
2022-09-03T12:26:04.073Z,49.22
2022-09-03T12:28:33.265Z,48.91
2022-09-03T12:31:22.932Z,48.82
2022-09-03T12:33:56.324Z,49.25
2022-09-03T12:36:24.355Z,49.53
2022-09-03T12:39:11.070Z,48.65
2022-09-03T12:41:53.644Z,49.27
2022-09-03T12:44:30.029Z,49.29
2022-09-03T12:49:56.986Z,49.40
2022-09-03T12:52:29.709Z,48.87
2022-09-03T12:55:00.811Z,48.04
2022-09-03T12:57:45.829Z,47.25
2022-09-03T13:00:16.272Z,48.40
2022-09-03T13:02:59.980Z,47.86
2022-09-03T13:05:42.687Z,48.40
2022-09-03T13:08:18.850Z,48.05
2022-09-03T13:10:54.124Z,48.36
2022-09-03T13:13:32.003Z,49.51
2022-09-03T13:16:31.630Z,49.08
2022-09-03T13:19:17.597Z,47.69
2022-09-03T13:22:04.214Z,50.41
2022-09-03T13:24:56.821Z,48.70
2022-09-03T13:27:33.326Z,48.29
2022-09-03T13:30:32.443Z,47.34
2022-09-03T13:33:05.881Z,46.51
2022-09-03T13:35:47.177Z,48.53
2022-09-03T13:38:46.212Z,48.67
2022-09-03T13:41:41.924Z,48.27
2022-09-03T13:44:22.772Z,47.97
2022-09-03T13:47:02.355Z,47.26
2022-09-03T13:50:22.012Z,47.03
2022-09-03T13:53:02.756Z,46.41
2022-09-03T13:55:51.170Z,48.55
2022-09-03T13:58:18.872Z,48.25
2022-09-03T14:00:53.181Z,49.04
2022-09-03T14:03:50.871Z,50.64
2022-09-03T14:06:33.499Z,49.69
2022-09-03T14:09:40.054Z,48.84
2022-09-03T14:12:19.199Z,49.32
2022-09-03T14:15:14.284Z,50.15
2022-09-03T14:17:46.304Z,49.40
2022-09-03T14:20:31.511Z,51.48
2022-09-03T14:23:04.664Z,50.32
2022-09-03T14:25:32.886Z,50.25
2022-09-03T14:28:31.852Z,50.65
2022-09-03T14:30:59.527Z,50.04
2022-09-03T14:33:39.180Z,49.71
2022-09-03T14:36:53.696Z,49.87
2022-09-03T14:39:32.766Z,49.13
2022-09-03T14:42:27.468Z,49.15
2022-09-03T14:44:57.951Z,49.96
2022-09-03T14:47:44.213Z,49.50
2022-09-03T14:50:36.168Z,51.01
2022-09-03T14:53:35.950Z,50.03
2022-09-03T14:56:15.747Z,49.44
2022-09-03T14:59:22.577Z,50.40
2022-09-03T15:02:31.082Z,48.65
2022-09-03T15:05:14.149Z,50.50
2022-09-03T15:07:59.196Z,50.60
2022-09-03T15:10:32.724Z,48.83
2022-09-03T15:13:10.591Z,49.12
2022-09-03T15:15:41.511Z,49.32
2022-09-03T15:18:24.952Z,48.72
2022-09-03T15:21:24.994Z,48.75
2022-09-03T15:24:31.583Z,48.69
2022-09-03T15:27:17.382Z,48.54
2022-09-03T15:30:14.699Z,49.08
2022-09-03T15:32:42.356Z,48.84
2022-09-03T15:35:19.179Z,49.00
2022-09-03T15:37:57.825Z,49.09
2022-09-03T15:40:34.513Z,49.28
2022-09-03T15:43:23.047Z,49.07
2022-09-03T15:46:00.683Z,49.29
2022-09-03T15:48:44.623Z,49.88
2022-09-03T15:51:23.264Z,49.99
2022-09-03T15:54:03.001Z,49.47
2022-09-03T15:57:01.628Z,49.24
2022-09-03T15:59:56.985Z,49.79
2022-09-03T16:02:33.995Z,50.64
2022-09-03T16:05:08.000Z,50.44
2022-09-03T16:07:45.576Z,50.85
2022-09-03T16:10:25.299Z,51.04
2022-09-03T16:13:31.881Z,51.36
2022-09-03T16:16:06.542Z,51.84
2022-09-03T16:18:45.615Z,51.35
2022-09-03T16:21:52.331Z,51.72
2022-09-03T16:24:41.239Z,52.42
2022-09-03T16:27:20.431Z,52.19
2022-09-03T16:30:10.349Z,52.81
2022-09-03T16:33:15.460Z,53.16
2022-09-03T16:36:03.335Z,52.99
2022-09-03T16:38:43.752Z,55.58
2022-09-03T16:41:15.677Z,56.81
2022-09-03T16:44:06.022Z,57.04
2022-09-03T16:46:58.625Z,58.00
2022-09-03T16:50:00.237Z,58.20
2022-09-03T16:52:54.059Z,58.78
2022-09-03T16:55:24.911Z,59.41
2022-09-03T16:57:58.343Z,60.05
2022-09-03T17:01:08.872Z,60.05
2022-09-03T17:03:39.276Z,61.29
2022-09-03T17:06:10.108Z,61.69
2022-09-03T17:09:14.984Z,62.08
2022-09-03T17:12:08.377Z,62.44
2022-09-03T17:15:00.715Z,63.10
2022-09-03T17:18:23.005Z,63.96
2022-09-03T17:21:06.368Z,65.49
2022-09-03T17:24:13.257Z,65.74
2022-09-03T17:26:56.997Z,65.74
2022-09-03T17:29:35.860Z,66.38
2022-09-03T17:32:46.109Z,67.22
2022-09-03T17:36:01.688Z,68.37
2022-09-03T17:38:50.785Z,68.68
2022-09-03T17:41:37.395Z,69.15
2022-09-03T17:44:23.250Z,69.01
2022-09-03T17:47:27.808Z,68.64
2022-09-03T17:50:16.863Z,68.56
2022-09-03T17:52:52.393Z,68.32
2022-09-03T17:55:28.891Z,68.57
2022-09-03T17:58:27.636Z,68.28
2022-09-03T18:01:18.770Z,68.61
2022-09-03T18:03:55.633Z,68.55
2022-09-03T18:06:41.371Z,69.21
2022-09-03T18:09:37.849Z,69.42
2022-09-03T18:12:29.735Z,70.49
2022-09-03T18:15:32.344Z,70.83
2022-09-03T18:18:29.141Z,70.69
2022-09-03T18:21:26.431Z,71.44
2022-09-03T18:24:26.097Z,71.73
2022-09-03T18:27:20.169Z,71.53
2022-09-03T18:30:17.780Z,71.86
2022-09-03T18:33:04.252Z,72.10
2022-09-03T18:35:54.206Z,72.27
2022-09-03T18:38:46.279Z,72.35
2022-09-03T18:41:38.547Z,73.08
2022-09-03T18:45:21.033Z,73.33
2022-09-03T18:48:34.484Z,73.55
2022-09-03T18:51:45.951Z,73.63
2022-09-03T18:55:07.834Z,73.41
2022-09-03T18:58:21.157Z,73.25
2022-09-03T19:01:25.810Z,73.77
2022-09-03T19:04:50.552Z,73.54
2022-09-03T19:08:00.032Z,74.15
2022-09-03T19:11:36.167Z,73.84
2022-09-03T19:14:32.725Z,73.86
2022-09-03T19:17:46.177Z,73.78
2022-09-03T19:20:48.676Z,73.87
2022-09-03T19:23:35.259Z,74.08
2022-09-03T19:26:45.127Z,73.77
2022-09-03T19:29:51.552Z,74.13
2022-09-03T19:32:47.244Z,74.47
2022-09-03T19:35:37.479Z,74.22
2022-09-03T19:38:41.600Z,74.48
2022-09-03T19:41:28.203Z,74.91
2022-09-03T19:44:49.906Z,74.92
2022-09-03T19:48:02.833Z,75.12
2022-09-03T19:50:56.561Z,75.15
2022-09-03T19:53:42.860Z,75.14
2022-09-03T19:56:45.741Z,75.44
2022-09-03T19:59:38.800Z,76.05
2022-09-03T20:02:25.184Z,76.28
2022-09-03T20:05:19.813Z,76.39
2022-09-03T20:08:09.555Z,76.73
2022-09-03T20:10:37.623Z,76.97
2022-09-03T20:13:13.555Z,77.27
2022-09-03T20:15:54.197Z,77.26
2022-09-03T20:19:02.138Z,77.87
2022-09-03T20:21:43.852Z,78.02
2022-09-03T20:24:43.523Z,78.10
2022-09-03T20:27:29.010Z,78.55
2022-09-03T20:30:07.862Z,78.73
2022-09-03T20:32:57.750Z,78.90
2022-09-03T20:35:41.428Z,79.11
2022-09-03T20:38:24.473Z,79.46
2022-09-03T20:41:08.477Z,79.57
2022-09-03T20:44:00.205Z,79.66
2022-09-03T20:47:12.528Z,79.93
2022-09-03T20:49:46.256Z,80.19
2022-09-03T20:52:22.652Z,80.09
2022-09-03T20:55:25.854Z,80.39
2022-09-03T20:58:03.657Z,80.59
2022-09-03T21:00:45.171Z,80.61
2022-09-03T21:03:16.365Z,80.90
2022-09-03T21:05:56.009Z,80.76
2022-09-03T21:08:47.977Z,80.86
2022-09-03T21:11:35.159Z,81.45
2022-09-03T21:14:17.396Z,82.46
2022-09-03T21:16:48.399Z,82.74
2022-09-03T21:19:21.997Z,82.33
2022-09-03T21:22:07.199Z,81.98
2022-09-03T21:24:56.908Z,82.46
2022-09-03T21:27:32.469Z,82.17
2022-09-03T21:30:07.116Z,82.54
2022-09-03T21:32:48.430Z,82.67
2022-09-03T21:35:18.919Z,82.90
2022-09-03T21:38:04.601Z,82.89
2022-09-03T21:40:34.540Z,85.01
2022-09-03T21:43:12.165Z,84.79
2022-09-03T21:45:47.093Z,84.09
2022-09-03T21:48:35.598Z,83.19
2022-09-03T21:51:31.291Z,86.12
2022-09-03T21:54:18.903Z,86.76
2022-09-03T21:57:25.039Z,84.89
2022-09-03T22:00:20.086Z,86.38
2022-09-03T22:02:49.588Z,86.63
2022-09-03T22:05:18.783Z,86.24
2022-09-03T22:08:15.436Z,87.21
2022-09-03T22:11:06.288Z,87.65
2022-09-03T22:14:10.012Z,87.52
2022-09-03T22:16:45.114Z,88.75
2022-09-03T22:19:12.642Z,89.25
2022-09-03T22:22:01.063Z,88.90
2022-09-03T22:24:58.819Z,89.15
2022-09-03T22:27:37.020Z,88.34
2022-09-03T22:30:14.672Z,89.33
2022-09-03T22:33:15.454Z,89.21
2022-09-03T22:36:07.931Z,89.29
2022-09-03T22:38:53.804Z,88.63
2022-09-03T22:41:32.115Z,89.48
2022-09-03T22:44:05.635Z,89.17
2022-09-03T22:46:46.489Z,89.53
2022-09-03T22:49:25.984Z,89.85
2022-09-03T22:52:20.777Z,90.43
2022-09-03T22:55:00.491Z,89.88
2022-09-03T22:57:33.120Z,90.47
2022-09-03T23:00:08.134Z,88.93
2022-09-03T23:02:38.061Z,89.38
2022-09-03T23:05:15.063Z,89.50
2022-09-03T23:07:54.101Z,90.12
2022-09-03T23:10:30.856Z,90.03
2022-09-03T23:13:21.012Z,89.75
2022-09-03T23:16:03.150Z,90.07
2022-09-03T23:18:35.047Z,89.48
2022-09-03T23:21:11.808Z,90.12
2022-09-03T23:23:50.688Z,90.68
2022-09-03T23:26:37.168Z,91.43
2022-09-03T23:29:45.573Z,92.06
2022-09-03T23:32:13.401Z,90.85
2022-09-03T23:34:41.188Z,90.50
2022-09-03T23:37:33.393Z,90.25
2022-09-03T23:40:28.137Z,90.93
2022-09-03T23:43:07.852Z,91.02
2022-09-03T23:46:14.857Z,91.47
2022-09-03T23:48:42.808Z,91.60
2022-09-03T23:51:23.939Z,92.16
2022-09-03T23:54:00.426Z,93.97
2022-09-03T23:56:50.865Z,92.96
2022-09-03T23:59:40.734Z,93.43
